createdAt,value
2019-02-04T00:01:21.055Z,80.50
2019-02-04T00:03:49.350Z,79.50
2019-02-04T00:06:17.770Z,81.60
2019-02-04T00:08:46.068Z,82.50
2019-02-04T00:11:14.329Z,82.80
2019-02-04T00:13:42.468Z,82.70
2019-02-04T00:16:10.863Z,82.10
2019-02-04T00:18:39.150Z,80.90
2019-02-04T00:21:07.700Z,80.10
2019-02-04T00:23:36.206Z,80.30
2019-02-04T00:26:04.723Z,79.40
2019-02-04T00:28:32.974Z,79.60
2019-02-04T00:31:01.251Z,79.50
2019-02-04T00:33:29.456Z,79.50
2019-02-04T00:35:58.056Z,78.70
2019-02-04T00:38:26.295Z,77.60
2019-02-04T00:40:54.434Z,78.40
2019-02-04T00:43:22.885Z,78.50
2019-02-04T00:45:51.111Z,78.40
2019-02-04T00:48:19.335Z,78.20
2019-02-04T00:50:48.045Z,77.70
2019-02-04T00:53:16.490Z,76.90
2019-02-04T00:55:45.337Z,76.40
2019-02-04T00:58:13.674Z,76.60
2019-02-04T01:00:41.903Z,76.70
2019-02-04T01:03:10.416Z,77.10
2019-02-04T01:05:38.874Z,77.10
2019-02-04T01:08:07.411Z,77.90
2019-02-04T01:10:35.609Z,77.90
2019-02-04T01:13:04.316Z,77.90
2019-02-04T01:15:32.922Z,78.40
2019-02-04T01:18:01.163Z,77.80
2019-02-04T01:20:29.786Z,78.30
2019-02-04T01:22:59.038Z,78.00
2019-02-04T01:25:28.297Z,77.80
2019-02-04T01:27:56.754Z,79.20
2019-02-04T01:30:25.152Z,78.60
2019-02-04T01:32:53.604Z,79.20
2019-02-04T01:35:22.258Z,78.70
2019-02-04T01:37:50.595Z,78.30
2019-02-04T01:40:22.107Z,78.20
2019-02-04T01:42:50.786Z,79.20
2019-02-04T01:45:20.005Z,81.80
2019-02-04T01:47:48.298Z,82.20
2019-02-04T01:50:19.387Z,82.40
2019-02-04T01:52:47.788Z,82.10
2019-02-04T01:55:16.376Z,83.00
2019-02-04T01:57:47.285Z,81.70
2019-02-04T02:00:23.144Z,83.70
2019-02-04T02:02:51.391Z,83.70
2019-02-04T02:05:19.845Z,86.20
2019-02-04T02:07:48.160Z,85.40
2019-02-04T02:10:19.680Z,85.50
2019-02-04T02:12:48.967Z,84.20
2019-02-04T02:15:17.609Z,84.20
2019-02-04T02:17:46.604Z,84.60
2019-02-04T02:20:18.406Z,83.60
2019-02-04T02:22:46.743Z,83.80
2019-02-04T02:25:15.158Z,84.70
2019-02-04T02:27:43.615Z,87.50
2019-02-04T02:30:17.167Z,87.50
2019-02-04T02:32:45.216Z,88.60
2019-02-04T02:35:18.826Z,88.70
2019-02-04T02:37:47.320Z,87.00
2019-02-04T02:40:22.310Z,86.50
2019-02-04T02:42:50.612Z,86.50
2019-02-04T02:45:19.564Z,86.20
2019-02-04T02:47:47.464Z,85.90
2019-02-04T02:50:15.324Z,85.20
2019-02-04T02:52:43.214Z,85.60
2019-02-04T02:55:16.422Z,87.70
2019-02-04T02:57:44.245Z,88.50
2019-02-04T03:00:16.227Z,88.50
2019-02-04T03:02:44.106Z,88.40
2019-02-04T03:05:13.238Z,87.70
2019-02-04T03:07:41.037Z,87.60
2019-02-04T03:10:11.988Z,88.00
2019-02-04T03:12:39.774Z,88.40
2019-02-04T03:15:08.952Z,88.40
2019-02-04T03:17:36.744Z,88.40
2019-02-04T03:20:05.321Z,88.40
2019-02-04T03:22:33.171Z,88.40
2019-02-04T03:25:00.906Z,89.00
2019-02-04T03:27:28.685Z,88.90
2019-02-04T03:29:56.995Z,88.60
2019-02-04T03:32:24.785Z,88.70
2019-02-04T03:34:52.599Z,88.30
2019-02-04T03:37:20.378Z,88.10
2019-02-04T03:40:06.333Z,86.50
2019-02-04T03:42:34.663Z,86.60
2019-02-04T03:45:02.901Z,86.00
2019-02-04T03:47:30.670Z,85.60
2019-02-04T03:49:58.484Z,86.30
2019-02-04T03:52:26.281Z,86.30
2019-02-04T03:54:54.083Z,86.00
2019-02-04T03:57:23.740Z,85.20
2019-02-04T03:59:51.563Z,85.60
2019-02-04T04:02:19.397Z,85.90
2019-02-04T04:05:12.773Z,86.00
2019-02-04T04:07:41.147Z,87.20
2019-02-04T04:10:09.964Z,86.70
2019-02-04T04:12:53.979Z,87.50
2019-02-04T04:15:22.437Z,87.80
2019-02-04T04:17:50.195Z,87.80
2019-02-04T04:20:18.459Z,87.20
2019-02-04T04:22:46.255Z,87.50
2019-02-04T04:25:14.723Z,86.20
2019-02-04T04:27:42.614Z,87.40
2019-02-04T04:30:20.594Z,87.60
2019-02-04T04:32:48.381Z,87.70
2019-02-04T04:35:16.858Z,87.70
2019-02-04T04:37:44.635Z,87.70
2019-02-04T04:40:16.798Z,87.40
2019-02-04T04:42:44.570Z,88.30
2019-02-04T04:45:19.964Z,86.90
2019-02-04T04:47:48.005Z,87.60
2019-02-04T04:50:16.012Z,87.60
2019-02-04T04:52:43.893Z,87.60
2019-02-04T04:55:15.652Z,89.30
2019-02-04T04:57:43.425Z,89.90
2019-02-04T05:00:18.053Z,89.00
2019-02-04T05:02:45.843Z,87.60
2019-02-04T05:05:13.713Z,87.80
2019-02-04T05:07:41.575Z,87.60
2019-02-04T05:10:12.834Z,87.60
2019-02-04T05:12:40.660Z,87.20
2019-02-04T05:15:24.449Z,87.80
2019-02-04T05:17:52.861Z,87.20
2019-02-04T05:20:21.117Z,87.60
2019-02-04T05:22:48.916Z,88.90
2019-02-04T05:25:16.839Z,87.90
2019-02-04T05:27:44.607Z,88.00
2019-02-04T05:30:15.641Z,87.80
2019-02-04T05:32:43.431Z,87.90
2019-02-04T05:35:11.607Z,87.00
2019-02-04T05:37:39.513Z,87.20
2019-02-04T05:40:09.768Z,87.90
2019-02-04T05:42:37.557Z,86.80
2019-02-04T05:45:06.956Z,88.20
2019-02-04T05:47:34.795Z,87.90
2019-02-04T05:50:03.563Z,86.70
2019-02-04T05:52:31.438Z,87.80
2019-02-04T05:54:59.251Z,88.00
2019-02-04T05:57:27.054Z,87.70
2019-02-04T05:59:55.373Z,89.30
2019-02-04T06:02:26.146Z,88.00
2019-02-04T06:04:54.023Z,87.60
2019-02-04T06:07:22.031Z,87.60
2019-02-04T06:09:49.857Z,87.70
2019-02-04T06:12:17.710Z,87.60
2019-02-04T06:14:45.518Z,87.50
2019-02-04T06:17:13.324Z,87.70
2019-02-04T06:19:46.751Z,87.50
2019-02-04T06:22:17.828Z,87.80
2019-02-04T06:24:45.686Z,87.60
2019-02-04T06:27:20.092Z,87.60
2019-02-04T06:29:50.653Z,87.30
2019-02-04T06:32:18.470Z,88.50
2019-02-04T06:34:50.928Z,89.40
2019-02-04T06:37:18.785Z,89.30
2019-02-04T06:39:46.574Z,88.00
2019-02-04T06:42:14.384Z,87.90
2019-02-04T06:44:42.202Z,88.00
2019-02-04T06:47:10.260Z,88.00
2019-02-04T06:49:38.061Z,87.10
2019-02-04T06:52:08.118Z,88.80
2019-02-04T06:54:35.973Z,89.50
2019-02-04T06:57:08.975Z,89.60
2019-02-04T06:59:36.858Z,88.50
2019-02-04T07:02:04.802Z,88.40
2019-02-04T07:04:32.656Z,87.10
2019-02-04T07:07:00.505Z,87.20
2019-02-04T07:09:28.316Z,87.20
2019-02-04T07:11:56.099Z,87.20
2019-02-04T07:14:23.933Z,87.30
2019-02-04T07:16:51.726Z,87.90
2019-02-04T07:19:24.229Z,86.80
2019-02-04T07:21:49.193Z,87.30
2019-02-04T07:24:17.012Z,87.40
2019-02-04T07:26:44.797Z,87.10
2019-02-04T07:29:12.646Z,86.70
2019-02-04T07:31:41.034Z,88.00
2019-02-04T07:34:08.825Z,84.40
2019-02-04T07:36:36.558Z,77.60
2019-02-04T07:39:07.545Z,70.10
2019-02-04T07:41:35.328Z,66.60
2019-02-04T07:44:03.212Z,61.50
2019-02-04T07:46:30.987Z,59.40
2019-02-04T07:48:59.076Z,57.80
2019-02-04T07:51:26.910Z,56.70
2019-02-04T07:53:54.748Z,52.20
2019-02-04T07:56:41.993Z,51.20
2019-02-04T07:59:09.746Z,51.50
2019-02-04T08:01:37.600Z,49.00
2019-02-04T08:04:05.779Z,48.30
2019-02-04T08:06:33.636Z,45.70
2019-02-04T08:09:01.446Z,45.00
2019-02-04T08:11:29.290Z,45.60
2019-02-04T08:13:57.110Z,42.30
2019-02-04T08:16:25.288Z,42.50
2019-02-04T08:18:53.165Z,41.90
2019-02-04T08:21:20.992Z,40.90
2019-02-04T08:23:48.840Z,39.30
2019-02-04T08:26:16.666Z,37.60
2019-02-04T08:28:44.417Z,39.20
2019-02-04T08:31:12.255Z,45.20
2019-02-04T08:33:40.659Z,47.10
2019-02-04T08:36:08.520Z,50.00
2019-02-04T08:38:36.287Z,52.00
2019-02-04T08:41:04.201Z,53.60
2019-02-04T08:43:32.020Z,55.60
2019-02-04T08:45:59.813Z,56.90
2019-02-04T08:48:27.582Z,59.80
2019-02-04T08:50:55.871Z,61.70
2019-02-04T08:53:23.667Z,64.10
2019-02-04T08:55:51.669Z,65.30
2019-02-04T08:58:19.473Z,64.70
2019-02-04T09:00:47.240Z,65.20
2019-02-04T09:03:15.052Z,64.70
2019-02-04T09:05:42.858Z,65.50
2019-02-04T09:08:10.747Z,65.70
2019-02-04T09:10:38.878Z,66.40
2019-02-04T09:13:06.711Z,66.60
2019-02-04T09:15:34.742Z,67.70
2019-02-04T09:18:02.607Z,67.90
2019-02-04T09:20:30.402Z,68.50
2019-02-04T09:23:02.684Z,68.20
2019-02-04T09:25:32.536Z,68.70
2019-02-04T09:28:00.318Z,69.80
2019-02-04T09:30:28.272Z,69.70
2019-02-04T09:32:56.944Z,70.60
2019-02-04T09:35:24.878Z,70.60
2019-02-04T09:37:52.646Z,70.00
2019-02-04T09:40:28.980Z,71.20
2019-02-04T09:42:56.729Z,70.90
2019-02-04T09:45:28.161Z,71.20
2019-02-04T09:47:56.221Z,70.80
2019-02-04T09:50:24.639Z,70.10
2019-02-04T09:52:52.404Z,70.30
2019-02-04T09:55:29.086Z,70.40
2019-02-04T09:57:56.892Z,70.20
2019-02-04T10:00:28.526Z,69.70
2019-02-04T10:02:56.302Z,69.70
2019-02-04T10:05:24.353Z,68.60
2019-02-04T10:08:11.544Z,68.90
2019-02-04T10:10:39.336Z,71.90
2019-02-04T10:13:07.091Z,69.60
2019-02-04T10:15:37.669Z,69.10
2019-02-04T10:18:09.128Z,68.80
2019-02-04T10:20:37.273Z,69.60
2019-02-04T10:23:08.387Z,68.10
2019-02-04T10:25:39.120Z,66.80
2019-02-04T10:28:08.142Z,65.80
2019-02-04T10:30:37.305Z,67.20
2019-02-04T10:33:05.059Z,66.70
2019-02-04T10:35:33.179Z,66.70
2019-02-04T10:38:01.031Z,67.10
2019-02-04T10:40:29.342Z,66.10
2019-02-04T10:42:57.238Z,66.10
2019-02-04T10:45:25.757Z,65.60
2019-02-04T10:47:54.402Z,66.10
2019-02-04T10:50:26.040Z,61.50
2019-02-04T10:52:53.938Z,62.60
2019-02-04T10:55:21.789Z,62.20
2019-02-04T10:57:49.600Z,61.10
2019-02-04T11:00:20.132Z,57.70
2019-02-04T11:02:48.677Z,57.30
2019-02-04T11:05:23.103Z,58.00
2019-02-04T11:07:51.003Z,55.40
2019-02-04T11:10:21.509Z,56.80
2019-02-04T11:12:49.786Z,54.10
2019-02-04T11:15:18.296Z,54.00
2019-02-04T11:17:46.119Z,51.80
2019-02-04T11:20:25.581Z,51.00
2019-02-04T11:22:53.371Z,51.50
2019-02-04T11:25:21.292Z,50.30
2019-02-04T11:27:49.077Z,48.20
2019-02-04T11:30:21.407Z,47.70
2019-02-04T11:32:50.149Z,44.30
2019-02-04T11:35:17.973Z,39.10
2019-02-04T11:37:45.879Z,35.90
2019-02-04T11:40:19.943Z,34.40
2019-02-04T11:42:47.771Z,32.20
2019-02-04T11:45:25.688Z,30.00
2019-02-04T11:47:53.573Z,30.40
2019-02-04T11:50:21.315Z,29.50
2019-02-04T11:52:49.089Z,27.50
2019-02-04T11:55:17.325Z,27.30
2019-02-04T11:57:45.398Z,26.80
2019-02-04T12:00:17.702Z,25.90
2019-02-04T12:02:45.792Z,23.20
2019-02-04T12:05:15.941Z,23.30
2019-02-04T12:07:43.788Z,21.90
2019-02-04T12:10:39.224Z,23.30
2019-02-04T12:13:07.009Z,22.50
2019-02-04T12:15:34.762Z,23.70
2019-02-04T12:18:02.609Z,22.90
2019-02-04T12:20:30.363Z,21.70
2019-02-04T12:22:58.230Z,21.90
2019-02-04T12:25:31.024Z,21.10
2019-02-04T12:27:58.879Z,22.50
2019-02-04T12:30:32.953Z,22.30
2019-02-04T12:33:01.558Z,22.00
2019-02-04T12:35:29.439Z,21.50
2019-02-04T12:37:57.224Z,22.80
2019-02-04T12:40:25.700Z,22.70
2019-02-04T12:42:53.820Z,23.90
2019-02-04T12:45:33.638Z,24.00
2019-02-04T12:48:01.479Z,23.60
2019-02-04T12:50:29.343Z,23.40
2019-02-04T12:52:57.156Z,24.50
2019-02-04T12:55:27.511Z,25.30
2019-02-04T12:57:55.594Z,26.10
2019-02-04T13:00:25.894Z,24.90
2019-02-04T13:02:53.703Z,24.60
2019-02-04T13:05:34.690Z,25.20
2019-02-04T13:08:03.130Z,26.40
2019-02-04T13:10:31.310Z,26.60
2019-02-04T13:13:00.246Z,25.70
2019-02-04T13:15:28.038Z,26.10
2019-02-04T13:17:55.891Z,26.60
2019-02-04T13:20:23.882Z,26.80
2019-02-04T13:22:51.890Z,26.40
2019-02-04T13:25:25.678Z,28.10
2019-02-04T13:27:53.637Z,27.10
2019-02-04T13:30:23.124Z,26.10
2019-02-04T13:32:50.955Z,25.80
2019-02-04T13:35:18.958Z,25.70
2019-02-04T13:37:46.766Z,25.70
2019-02-04T13:40:19.055Z,25.20
2019-02-04T13:42:46.842Z,25.20
2019-02-04T13:45:16.838Z,24.10
2019-02-04T13:47:46.676Z,24.80
2019-02-04T13:50:15.955Z,23.60
2019-02-04T13:52:44.385Z,23.10
2019-02-04T13:55:16.488Z,23.60
2019-02-04T13:57:44.249Z,23.10
2019-02-04T14:00:13.246Z,24.40
2019-02-04T14:02:41.152Z,23.90
2019-02-04T14:05:09.364Z,24.80
2019-02-04T14:07:37.717Z,25.40
2019-02-04T14:10:10.995Z,26.10
2019-02-04T14:12:38.925Z,25.70
2019-02-04T14:15:09.094Z,27.50
2019-02-04T14:17:37.135Z,26.90
2019-02-04T14:20:07.692Z,27.90
2019-02-04T14:22:37.348Z,28.00
2019-02-04T14:25:05.800Z,27.20
2019-02-04T14:27:33.635Z,28.50
2019-02-04T14:30:01.433Z,28.60
2019-02-04T14:32:29.401Z,27.50
2019-02-04T14:34:57.729Z,27.80
2019-02-04T14:37:28.094Z,28.50
2019-02-04T14:39:55.924Z,28.30
2019-02-04T14:42:23.803Z,28.30
2019-02-04T14:45:37.219Z,28.20
2019-02-04T14:48:37.849Z,28.30
2019-02-04T14:52:21.589Z,28.20
2019-02-04T14:55:33.482Z,28.30
2019-02-04T14:58:38.024Z,28.80
2019-02-04T15:02:02.257Z,28.80
2019-02-04T15:05:00.577Z,28.20
2019-02-04T15:08:15.405Z,28.30
2019-02-04T15:11:22.926Z,28.40
2019-02-04T15:14:38.434Z,28.20
2019-02-04T15:18:01.991Z,29.10
2019-02-04T15:20:57.878Z,30.00
2019-02-04T15:23:47.351Z,30.60
2019-02-04T15:27:13.919Z,31.50
2019-02-04T15:30:00.826Z,31.90
2019-02-04T15:33:20.814Z,32.50
2019-02-04T15:37:10.373Z,33.00
2019-02-04T15:40:30.288Z,33.50
2019-02-04T15:43:36.795Z,34.80
2019-02-04T15:46:44.132Z,35.30
2019-02-04T15:50:15.140Z,35.80
2019-02-04T15:52:46.507Z,36.00
2019-02-04T15:55:18.253Z,36.20
2019-02-04T15:57:46.237Z,36.20
2019-02-04T16:00:15.374Z,37.10
2019-02-04T16:02:43.187Z,37.70
2019-02-04T16:05:13.474Z,37.90
2019-02-04T16:07:41.663Z,39.10
2019-02-04T16:10:15.230Z,39.70
2019-02-04T16:12:43.077Z,40.60
2019-02-04T16:15:26.298Z,40.80
2019-02-04T16:17:56.101Z,41.70
2019-02-04T16:20:24.410Z,42.70
2019-02-04T16:22:58.463Z,43.20
2019-02-04T16:25:21.968Z,43.30
2019-02-04T16:27:51.772Z,43.60
2019-02-04T16:30:20.919Z,44.10
2019-02-04T16:32:48.740Z,44.80
2019-02-04T16:35:19.405Z,44.90
2019-02-04T16:37:48.270Z,44.90
2019-02-04T16:40:18.941Z,44.80
2019-02-04T16:42:46.688Z,44.80
2019-02-04T16:45:17.506Z,44.70
2019-02-04T16:47:45.328Z,44.70
2019-02-04T16:50:17.561Z,44.70
2019-02-04T16:52:48.120Z,44.70
2019-02-04T16:55:15.080Z,44.70
2019-02-04T16:57:42.921Z,44.70
2019-02-04T17:00:15.274Z,45.20
2019-02-04T17:02:43.496Z,46.10
2019-02-04T17:05:12.837Z,45.80
2019-02-04T17:07:40.721Z,46.10
2019-02-04T17:10:12.964Z,46.10
2019-02-04T17:12:40.899Z,47.00
2019-02-04T17:15:08.882Z,47.40
2019-02-04T17:17:36.755Z,46.90
2019-02-04T17:20:09.915Z,47.50
2019-02-04T17:22:37.777Z,47.10
2019-02-04T17:25:11.362Z,46.70
2019-02-04T17:27:39.237Z,46.50
2019-02-04T17:30:11.759Z,47.30
2019-02-04T17:32:39.662Z,47.10
2019-02-04T17:35:08.141Z,47.40
2019-02-04T17:37:36.111Z,47.70
2019-02-04T17:40:07.778Z,47.60
2019-02-04T17:42:35.607Z,46.90
2019-02-04T17:45:06.031Z,47.40
2019-02-04T17:47:34.430Z,46.70
2019-02-04T17:50:02.376Z,48.50
2019-02-04T17:52:30.250Z,49.40
2019-02-04T17:54:58.100Z,50.50
2019-02-04T17:57:28.620Z,50.30
2019-02-04T17:59:56.453Z,50.40
2019-02-04T18:02:24.318Z,49.70
2019-02-04T18:04:52.124Z,51.60
2019-02-04T18:07:20.671Z,51.00
2019-02-04T18:09:48.685Z,51.40
2019-02-04T18:12:16.524Z,51.10
2019-02-04T18:14:44.364Z,51.90
2019-02-04T18:17:12.499Z,50.80
2019-02-04T18:19:40.674Z,52.00
2019-02-04T18:22:08.646Z,50.10
2019-02-04T18:24:36.500Z,50.20
2019-02-04T18:27:04.800Z,52.30
2019-02-04T18:29:38.475Z,51.10
2019-02-04T18:32:06.558Z,52.20
2019-02-04T18:34:35.550Z,51.40
2019-02-04T18:37:08.817Z,54.20
2019-02-04T18:39:38.683Z,54.10
2019-02-04T18:42:06.490Z,54.10
2019-02-04T18:44:34.629Z,55.70
2019-02-04T18:47:03.322Z,56.40
2019-02-04T18:49:31.217Z,55.70
2019-02-04T18:52:00.206Z,54.90
2019-02-04T18:54:36.784Z,54.90
2019-02-04T18:57:09.215Z,54.60
2019-02-04T18:59:38.397Z,56.00
2019-02-04T19:02:12.308Z,56.10
2019-02-04T19:04:41.100Z,56.70
2019-02-04T19:07:11.255Z,56.10
2019-02-04T19:09:40.136Z,56.50
2019-02-04T19:12:10.014Z,57.30
2019-02-04T19:14:39.745Z,56.20
2019-02-04T19:17:07.576Z,57.50
2019-02-04T19:19:35.431Z,56.90
2019-02-04T19:22:04.139Z,57.50
2019-02-04T19:24:32.382Z,59.20
2019-02-04T19:27:01.096Z,58.90
2019-02-04T19:29:44.657Z,59.00
2019-02-04T19:32:13.220Z,57.90
2019-02-04T19:34:41.729Z,57.20
2019-02-04T19:37:10.126Z,56.60
2019-02-04T19:39:38.605Z,56.30
2019-02-04T19:42:08.071Z,55.20
2019-02-04T19:44:36.522Z,55.50
2019-02-04T19:47:06.143Z,54.20
2019-02-04T19:49:34.227Z,54.20
2019-02-04T19:52:02.639Z,54.30
2019-02-04T19:54:32.516Z,54.80
2019-02-04T19:57:01.239Z,54.30
2019-02-04T19:59:29.747Z,56.30
2019-02-04T20:02:13.261Z,57.50
2019-02-04T20:04:41.429Z,60.50
2019-02-04T20:07:09.864Z,59.00
2019-02-04T20:09:38.594Z,59.40
2019-02-04T20:12:07.214Z,59.50
2019-02-04T20:14:35.499Z,59.20
2019-02-04T20:17:07.745Z,59.10
2019-02-04T20:19:36.252Z,59.10
2019-02-04T20:22:04.906Z,59.00
2019-02-04T20:24:33.645Z,60.20
2019-02-04T20:27:02.041Z,60.20
2019-02-04T20:29:30.322Z,61.00
2019-02-04T20:32:01.119Z,60.80
2019-02-04T20:34:29.549Z,59.70
2019-02-04T20:36:58.007Z,58.20
2019-02-04T20:39:26.370Z,57.50
2019-02-04T20:41:57.436Z,56.50
2019-02-04T20:44:25.908Z,55.60
2019-02-04T20:46:54.256Z,57.60
2019-02-04T20:49:22.605Z,58.30
2019-02-04T20:51:50.857Z,60.10
2019-02-04T20:54:20.106Z,59.70
2019-02-04T20:56:49.458Z,62.10
2019-02-04T20:59:17.740Z,61.00
2019-02-04T21:01:46.182Z,61.20
2019-02-04T21:04:14.469Z,61.30
2019-02-04T21:06:42.842Z,61.90
2019-02-04T21:09:11.547Z,62.50
2019-02-04T21:11:39.358Z,63.80
2019-02-04T21:14:07.232Z,64.30
2019-02-04T21:16:35.043Z,63.90
2019-02-04T21:19:02.942Z,63.40
2019-02-04T21:21:30.767Z,63.90
2019-02-04T21:23:58.951Z,61.30
2019-02-04T21:26:26.797Z,60.00
2019-02-04T21:28:54.622Z,61.20
2019-02-04T21:31:22.480Z,58.20
2019-02-04T21:33:50.237Z,57.70
2019-02-04T21:36:18.080Z,58.70
2019-02-04T21:38:46.280Z,56.40
2019-02-04T21:41:14.126Z,56.70
2019-02-04T21:43:42.664Z,56.70
2019-02-04T21:46:16.271Z,56.10
2019-02-04T21:48:49.380Z,57.50
2019-02-04T21:51:37.456Z,55.80
2019-02-04T21:54:05.479Z,58.90
2019-02-04T21:56:33.761Z,59.50
2019-02-04T21:59:01.579Z,60.90
2019-02-04T22:01:29.388Z,62.10
2019-02-04T22:03:57.143Z,61.90
2019-02-04T22:06:24.993Z,61.90
2019-02-04T22:08:52.874Z,62.30
2019-02-04T22:11:20.675Z,62.00
2019-02-04T22:13:48.488Z,61.90
2019-02-04T22:16:16.292Z,63.00
2019-02-04T22:18:44.176Z,62.30
2019-02-04T22:21:12.826Z,63.50
2019-02-04T22:23:40.623Z,63.90
2019-02-04T22:26:09.432Z,63.00
2019-02-04T22:28:39.034Z,63.00
2019-02-04T22:31:06.850Z,62.70
2019-02-04T22:33:34.665Z,63.80
2019-02-04T22:36:02.498Z,63.50
2019-02-04T22:38:30.281Z,63.70
2019-02-04T22:40:58.101Z,63.70
2019-02-04T22:43:25.856Z,63.70
2019-02-04T22:45:58.844Z,63.60
2019-02-04T22:48:26.602Z,63.70
2019-02-04T22:50:54.430Z,63.70
2019-02-04T22:53:22.193Z,63.70
2019-02-04T22:55:51.688Z,62.90
2019-02-04T22:58:19.510Z,61.60
2019-02-04T23:01:59.691Z,62.30
2019-02-04T23:04:27.694Z,61.30
2019-02-04T23:06:55.465Z,60.80
2019-02-04T23:09:23.277Z,60.30
2019-02-04T23:11:55.974Z,59.50
2019-02-04T23:14:23.784Z,59.70
2019-02-04T23:16:51.561Z,58.70
2019-02-04T23:19:19.617Z,58.70
2019-02-04T23:21:47.429Z,58.40
2019-02-04T23:24:15.251Z,58.80
2019-02-04T23:26:43.043Z,58.80
2019-02-04T23:29:10.819Z,58.80
2019-02-04T23:31:38.618Z,58.80
2019-02-04T23:34:06.810Z,59.00
2019-02-04T23:36:39.865Z,59.20
2019-02-04T23:39:09.210Z,59.50
2019-02-04T23:41:37.048Z,59.30
2019-02-04T23:44:05.254Z,59.50
2019-02-04T23:46:33.049Z,59.50
2019-02-04T23:49:00.807Z,59.50
2019-02-04T23:51:28.642Z,59.80
2019-02-04T23:53:56.427Z,59.30
2019-02-04T23:56:29.323Z,59.10
2019-02-04T23:58:57.084Z,59.40
